Time;durP1;ratioP1;P1;durP2;ratioP2;P2;SDS_P1;SDS_P2;PMS_P1;PMS_P2;Temp;Humidity;BMP_temperature;BMP_pressure;BME280_temperature;BME280_humidity;BME280_pressure;Samples;Min_cycle;Max_cycle;Signal;HPM_P1;HPM_P2
2023/10/06 00:00:42;;;;;;;8.23;6.35;;;;;;;12.09;100.00;101282.13;5062073;28;20480;-85
2023/10/06 00:03:12;;;;;;;10.02;5.35;;;;;;;12.09;100.00;101278.44;5077847;28;20492;-87
2023/10/06 00:05:41;;;;;;;10.50;5.25;;;;;;;12.15;100.00;101288.00;5096644;28;20023;-85
2023/10/06 00:08:11;;;;;;;12.50;5.82;;;;;;;12.16;100.00;101292.44;5062743;28;20123;-85
2023/10/06 00:10:44;;;;;;;14.23;6.22;;;;;;;12.17;100.00;101291.97;5079576;28;20028;-87
2023/10/06 00:13:18;;;;;;;15.48;5.85;;;;;;;12.16;100.00;101290.38;5078790;28;20115;-85
2023/10/06 00:15:45;;;;;;;12.02;6.20;;;;;;;12.16;100.00;101298.16;5095435;28;20567;-86
2023/10/06 00:18:27;;;;;;;10.52;5.53;;;;;;;12.16;100.00;101296.09;5077807;28;20426;-86
2023/10/06 00:21:03;;;;;;;12.77;6.00;;;;;;;12.15;100.00;101306.00;5095608;28;20020;-85
2023/10/06 00:23:30;;;;;;;8.48;5.10;;;;;;;12.11;100.00;101302.47;5093663;28;20028;-87
2023/10/06 00:25:57;;;;;;;10.05;5.20;;;;;;;12.15;100.00;101302.31;5095902;28;20100;-85
2023/10/06 00:28:26;;;;;;;10.65;4.97;;;;;;;12.14;100.00;101306.47;5095621;28;20016;-86
2023/10/06 00:31:09;;;;;;;10.15;4.75;;;;;;;12.10;100.00;101300.09;5076944;28;20027;-86
2023/10/06 00:33:40;;;;;;;9.10;4.70;;;;;;;12.12;100.00;101304.06;5094933;28;20694;-84
2023/10/06 00:36:17;;;;;;;9.57;4.68;;;;;;;12.08;100.00;101302.63;5078157;28;20108;-85
2023/10/06 00:38:52;;;;;;;11.80;5.05;;;;;;;12.07;100.00;101309.63;5063198;28;20042;-85
2023/10/06 00:41:20;;;;;;;11.35;5.53;;;;;;;12.07;100.00;101310.44;5095178;28;20100;-84
2023/10/06 00:44:06;;;;;;;11.63;5.15;;;;;;;12.06;100.00;101314.56;5093973;28;20020;-86
2023/10/06 00:46:31;;;;;;;11.02;5.72;;;;;;;12.03;100.00;101311.88;5094731;28;20044;-85
2023/10/06 00:49:04;;;;;;;13.07;5.40;;;;;;;12.00;100.00;101325.09;5077912;28;20051;-86
2023/10/06 00:51:31;;;;;;;12.65;4.70;;;;;;;11.98;100.00;101321.09;5092687;28;20040;-84
2023/10/06 00:53:56;;;;;;;13.77;5.55;;;;;;;11.92;100.00;101315.22;5093492;28;20028;-85
2023/10/06 00:56:32;;;;;;;6.80;4.47;;;;;;;11.97;100.00;101320.31;5093344;28;20040;-85
2023/10/06 00:59:03;;;;;;;10.10;5.07;;;;;;;11.93;100.00;101322.53;5093490;28;20457;-85
2023/10/06 01:01:42;;;;;;;;;;;;;;;11.92;100.00;101320.94;5093745;28;20024;-84
2023/10/06 01:04:08;;;;;;;6.65;5.10;;;;;;;11.74;100.00;101304.56;5075487;28;19908;-86
2023/10/06 01:06:36;;;;;;;12.38;4.97;;;;;;;11.81;100.00;101315.69;5093116;28;20020;-83
2023/10/06 01:09:09;;;;;;;8.80;4.82;;;;;;;11.83;100.00;101323.81;5058548;28;20060;-86
2023/10/06 01:11:58;;;;;;;10.55;5.20;;;;;;;11.82;100.00;101320.16;5093415;28;20099;-84
2023/10/06 01:14:33;;;;;;;9.45;4.88;;;;;;;11.78;100.00;101313.78;5090943;28;20039;-84
2023/10/06 01:17:19;;;;;;;12.75;5.65;;;;;;;11.75;100.00;101320.47;5063187;28;20039;-84
2023/10/06 01:19:47;;;;;;;11.60;5.25;;;;;;;11.73;100.00;101322.22;5094771;28;20382;-84
2023/10/06 01:22:28;;;;;;;14.80;5.70;;;;;;;11.70;100.00;101318.25;5094287;28;20024;-86
2023/10/06 01:24:58;;;;;;;10.18;5.13;;;;;;;11.66;100.00;101306.16;5078804;28;20112;-84
2023/10/06 01:27:32;;;;;;;11.43;4.57;;;;;;;11.68;100.00;101320.78;5078108;28;20028;-83
2023/10/06 01:32:46;;;;;;;11.35;4.95;;;;;;;11.71;100.00;101330.50;5100051;28;20035;-83
2023/10/06 01:35:13;;;;;;;13.35;5.88;;;;;;;11.79;100.00;101331.78;5095398;28;20035;-85
2023/10/06 01:37:43;;;;;;;12.02;5.68;;;;;;;11.87;100.00;101327.31;5082793;28;20031;-86
2023/10/06 01:42:55;;;;;;;9.77;4.25;;;;;;;11.98;100.00;101339.09;5077585;28;20084;-85
2023/10/06 01:45:29;;;;;;;12.07;5.95;;;;;;;11.95;100.00;101336.41;5096791;28;20024;-84
2023/10/06 01:47:57;;;;;;;10.65;4.95;;;;;;;11.95;100.00;101342.13;5098778;28;20044;-85
2023/10/06 01:50:27;;;;;;;8.82;5.65;;;;;;;11.93;100.00;101334.00;5092857;28;20043;-86
2023/10/06 01:52:56;;;;;;;12.02;5.85;;;;;;;11.95;100.00;101342.91;5101827;28;20012;-82
2023/10/06 01:55:24;;;;;;;9.80;5.32;;;;;;;11.94;100.00;101343.38;5118861;28;20075;-84
2023/10/06 01:57:58;;;;;;;10.20;5.25;;;;;;;12.03;100.00;101337.66;5101510;28;20048;-80
2023/10/06 02:00:31;;;;;;;11.73;5.38;;;;;;;12.09;100.00;101339.41;5118562;28;20016;-83
2023/10/06 02:03:10;;;;;;;7.95;5.50;;;;;;;12.10;100.00;101345.94;5118911;28;20064;-85
2023/10/06 02:05:54;;;;;;;9.63;5.45;;;;;;;12.09;100.00;101347.22;5111020;28;20054;-84
2023/10/06 02:08:23;;;;;;;7.53;5.05;;;;;;;12.06;100.00;101346.09;5093648;28;20020;-84
2023/10/06 02:10:54;;;;;;;7.90;5.35;;;;;;;12.03;100.00;101337.66;5079907;28;20020;-84
2023/10/06 02:13:22;;;;;;;7.55;5.53;;;;;;;11.92;100.00;101334.47;5081372;28;20032;-84
2023/10/06 02:15:58;;;;;;;9.23;5.45;;;;;;;11.94;100.00;101346.25;5098901;28;20346;-86
2023/10/06 02:18:40;;;;;;;8.18;4.75;;;;;;;11.93;100.00;101341.78;5065319;28;20103;-84
2023/10/06 02:21:23;;;;;;;11.18;5.32;;;;;;;11.93;100.00;101341.78;5086454;28;20028;-83
2023/10/06 02:24:03;;;;;;;11.57;5.75;;;;;;;11.88;100.00;101343.22;5117896;28;20028;-81
2023/10/06 02:26:36;;;;;;;13.10;6.63;;;;;;;11.88;100.00;101345.28;5098356;28;20024;-84
2023/10/06 02:29:02;;;;;;;;;;;;;;;11.83;100.00;101343.84;5048940;28;20170;-84
2023/10/06 02:31:29;;;;;;;11.43;5.15;;;;;;;11.78;100.00;101341.63;5080889;28;19919;-84
2023/10/06 02:33:55;;;;;;;9.70;5.55;;;;;;;11.80;100.00;101339.91;5080126;28;20461;-86
2023/10/06 02:36:26;;;;;;;9.77;5.88;;;;;;;11.82;100.00;101340.19;5096757;28;20035;-86
2023/10/06 02:38:52;;;;;;;9.77;5.57;;;;;;;11.88;100.00;101346.09;5097609;28;20035;-86
2023/10/06 02:41:25;;;;;;;15.82;6.60;;;;;;;11.91;100.00;101344.34;5062899;28;20028;-85
2023/10/06 02:44:14;;;;;;;11.18;5.68;;;;;;;11.97;100.00;101343.22;5080081;28;20024;-84
2023/10/06 02:46:44;;;;;;;8.70;5.38;;;;;;;12.06;100.00;101339.59;5097298;28;20422;-84
2023/10/06 02:49:11;;;;;;;11.35;5.93;;;;;;;12.17;100.00;101349.28;5097174;28;20024;-84
2023/10/06 02:51:48;;;;;;;11.45;5.85;;;;;;;12.26;100.00;101342.72;5045908;28;20423;-84
2023/10/06 02:56:57;;;;;;;9.18;5.38;;;;;;;12.44;100.00;101353.41;5098103;28;20040;-85
2023/10/06 02:59:34;;;;;;;10.23;6.38;;;;;;;12.50;100.00;101352.31;5096992;28;20039;-85
2023/10/06 03:02:06;;;;;;;8.65;5.82;;;;;;;12.59;100.00;101345.75;5096825;28;20058;-84
2023/10/06 03:04:36;;;;;;;8.45;6.18;;;;;;;12.67;100.00;101344.13;5079716;28;20035;-85
2023/10/06 03:07:18;;;;;;;12.80;6.35;;;;;;;12.69;100.00;101342.38;5097485;28;20358;-84
2023/10/06 03:09:47;;;;;;;11.15;6.15;;;;;;;12.79;100.00;101342.34;5097026;28;20385;-83
2023/10/06 03:12:20;;;;;;;13.88;6.45;;;;;;;12.84;100.00;101342.47;5097293;28;20028;-85
2023/10/06 03:14:46;;;;;;;12.25;7.72;;;;;;;12.87;100.00;101341.50;5096998;28;20422;-84
2023/10/06 03:17:14;;;;;;;13.18;6.80;;;;;;;12.87;100.00;101340.72;5095017;28;20126;-84
2023/10/06 03:19:56;;;;;;;13.93;8.27;;;;;;;12.91;100.00;101347.06;5096586;28;20078;-84
2023/10/06 03:22:25;;;;;;;12.77;7.10;;;;;;;12.89;100.00;101344.69;5079631;28;20062;-84
2023/10/06 03:24:58;;;;;;;10.82;7.45;;;;;;;12.93;100.00;101353.13;5078731;28;20473;-85
2023/10/06 03:27:23;;;;;;;13.20;7.32;;;;;;;12.98;100.00;101343.84;5096564;28;20153;-86
2023/10/06 03:29:54;;;;;;;12.10;7.38;;;;;;;13.02;100.00;101330.13;5096644;28;20054;-85
2023/10/06 03:32:33;;;;;;;16.77;7.65;;;;;;;13.04;100.00;101327.56;5078722;28;20451;-85
2023/10/06 03:35:11;;;;;;;15.85;8.45;;;;;;;13.06;100.00;101333.59;5080288;28;20065;-85
2023/10/06 03:38:08;;;;;;;11.23;6.93;;;;;;;13.10;100.00;101343.63;5080327;28;20477;-85
2023/10/06 03:41:04;;;;;;;13.60;7.45;;;;;;;13.11;100.00;101339.47;5083749;28;20024;-85
2023/10/06 03:43:57;;;;;;;15.80;7.25;;;;;;;13.10;100.00;101337.88;5095957;28;20542;-85
2023/10/06 03:46:24;;;;;;;16.00;7.75;;;;;;;13.11;100.00;101345.22;5081085;28;20028;-84
2023/10/06 03:48:51;;;;;;;10.88;7.13;;;;;;;13.16;100.00;101348.72;5096236;28;20025;-84
2023/10/06 03:51:23;;;;;;;12.95;7.38;;;;;;;13.20;100.00;101350.13;5077918;28;20063;-85
2023/10/06 03:53:49;;;;;;;13.80;6.85;;;;;;;13.20;100.00;101341.50;5096038;28;20028;-84
2023/10/06 03:56:16;;;;;;;18.23;7.63;;;;;;;13.25;100.00;101346.59;5078064;28;20548;-85
2023/10/06 03:58:47;;;;;;;16.13;9.18;;;;;;;13.28;100.00;101353.44;5096445;28;20051;-85
2023/10/06 04:01:19;;;;;;;12.20;7.32;;;;;;;13.29;100.00;101350.09;5061722;28;20024;-84
2023/10/06 04:03:51;;;;;;;17.02;7.57;;;;;;;13.26;100.00;101344.50;5095240;28;20149;-85
2023/10/06 04:06:19;;;;;;;12.15;7.43;;;;;;;13.24;100.00;101355.72;5094689;28;20024;-84
2023/10/06 04:09:03;;;;;;;9.85;6.22;;;;;;;13.29;100.00;101347.22;5097831;28;20036;-86
2023/10/06 04:11:30;;;;;;;11.43;6.60;;;;;;;13.28;100.00;101342.75;5079681;28;20024;-85
2023/10/06 04:13:55;;;;;;;13.23;6.55;;;;;;;13.36;100.00;101346.84;5097549;28;20081;-87
2023/10/06 04:16:23;;;;;;;12.45;7.10;;;;;;;13.38;100.00;101349.25;5080374;28;20044;-84
2023/10/06 04:19:08;;;;;;;12.48;6.32;;;;;;;13.37;100.00;101354.19;5096665;28;20036;-87
2023/10/06 04:21:34;;;;;;;12.30;6.82;;;;;;;13.37;100.00;101362.81;5043790;28;20097;-86
2023/10/06 04:24:00;;;;;;;9.55;6.43;;;;;;;13.33;100.00;101350.72;5095487;28;20453;-86
2023/10/06 04:26:26;;;;;;;13.07;6.72;;;;;;;13.29;100.00;101346.44;5077177;28;20028;-85
2023/10/06 04:28:57;;;;;;;12.57;7.40;;;;;;;13.35;100.00;101345.25;5095493;28;20078;-86
2023/10/06 04:31:24;;;;;;;13.68;6.47;;;;;;;13.39;100.00;101353.72;5095684;28;20028;-85
2023/10/06 04:33:50;;;;;;;13.43;7.07;;;;;;;13.42;100.00;101361.34;5095620;28;20036;-86
2023/10/06 04:36:20;;;;;;;12.93;6.53;;;;;;;13.46;100.00;101364.81;5061236;28;20090;-85
2023/10/06 04:38:47;;;;;;;13.00;6.70;;;;;;;13.48;100.00;101360.19;5095829;28;20114;-86
2023/10/06 04:41:14;;;;;;;12.82;7.15;;;;;;;13.51;100.00;101367.06;5096360;28;20385;-86
2023/10/06 04:43:45;;;;;;;10.40;6.78;;;;;;;13.53;100.00;101361.63;5082127;28;20028;-84
2023/10/06 04:46:11;;;;;;;10.55;7.07;;;;;;;13.55;100.00;101361.91;5098548;28;20047;-83
2023/10/06 04:48:38;;;;;;;10.60;6.88;;;;;;;13.53;100.00;101353.81;5106762;28;20035;-82
2023/10/06 04:51:09;;;;;;;12.63;7.18;;;;;;;13.57;100.00;101358.56;5118139;28;20034;-82
2023/10/06 04:53:55;;;;;;;14.18;6.72;;;;;;;13.53;100.00;101364.50;5099799;28;20028;-83
2023/10/06 04:56:22;;;;;;;11.93;6.97;;;;;;;13.43;100.00;101363.72;5093476;28;20039;-84
2023/10/06 04:58:48;;;;;;;11.00;6.55;;;;;;;13.45;100.00;101366.09;5093503;28;20057;-84
2023/10/06 05:01:16;;;;;;;17.35;7.63;;;;;;;13.45;100.00;101364.03;5075684;28;20043;-82
2023/10/06 05:03:49;;;;;;;12.35;6.30;;;;;;;13.46;100.00;101373.44;5095171;28;20145;-86
2023/10/06 05:06:16;;;;;;;14.70;6.20;;;;;;;13.45;100.00;101360.34;5094775;28;20032;-83
2023/10/06 05:08:44;;;;;;;11.35;7.43;;;;;;;13.47;100.00;101366.41;5076753;28;20024;-81
2023/10/06 05:11:12;;;;;;;12.23;6.60;;;;;;;13.49;100.00;101369.59;5094604;28;20027;-80
2023/10/06 05:13:39;;;;;;;11.07;6.65;;;;;;;13.50;100.00;101374.84;5094223;28;20107;-79
2023/10/06 05:16:05;;;;;;;15.90;6.25;;;;;;;13.52;100.00;101372.31;5095971;28;20059;-82
2023/10/06 05:18:38;;;;;;;14.18;6.80;;;;;;;13.48;100.00;101371.69;5063075;28;20425;-82
2023/10/06 05:21:11;;;;;;;12.45;6.32;;;;;;;13.50;100.00;101380.59;5083336;28;20020;-82
2023/10/06 05:23:38;;;;;;;11.60;7.40;;;;;;;13.40;100.00;101378.25;5063327;28;20029;-82
2023/10/06 05:26:10;;;;;;;13.60;6.25;;;;;;;13.42;100.00;101387.19;5100408;28;20036;-86
2023/10/06 05:28:38;;;;;;;15.75;7.00;;;;;;;13.30;100.00;101380.38;5116525;28;20036;-83
2023/10/06 05:31:07;;;;;;;14.63;7.10;;;;;;;13.29;100.00;101396.03;5100540;28;20024;-84
2023/10/06 05:33:33;;;;;;;14.40;7.45;;;;;;;13.23;100.00;101397.97;5095058;28;20121;-84
2023/10/06 05:36:11;;;;;;;14.10;7.60;;;;;;;13.27;100.00;101407.19;5076555;28;20030;-84
2023/10/06 05:38:37;;;;;;;11.27;7.75;;;;;;;13.22;100.00;101387.75;5060062;28;20036;-84
2023/10/06 05:41:07;;;;;;;12.60;6.38;;;;;;;13.44;100.00;101416.22;5076704;28;20083;-84
2023/10/06 05:43:34;;;;;;;19.45;7.65;;;;;;;13.38;100.00;101387.38;5076999;28;20024;-84
2023/10/06 05:46:02;;;;;;;12.35;6.70;;;;;;;13.59;100.00;101413.47;5075318;28;20434;-86
2023/10/06 05:48:30;;;;;;;15.15;7.22;;;;;;;13.63;100.00;101414.88;5094690;28;20031;-85
2023/10/06 05:51:05;;;;;;;14.80;6.82;;;;;;;13.46;100.00;101394.34;5094224;28;20024;-87
2023/10/06 05:53:38;;;;;;;16.00;7.25;;;;;;;13.61;100.00;101405.13;5095079;28;20024;-88
2023/10/06 05:56:07;;;;;;;11.98;7.43;;;;;;;13.68;100.00;101401.91;5057196;28;20397;-91
2023/10/06 05:58:37;;;;;;;11.23;6.53;;;;;;;13.74;100.00;101408.59;5073911;28;20100;-91
2023/10/06 06:01:06;;;;;;;12.07;6.70;;;;;;;13.73;100.00;101407.78;5077330;28;20017;-88
2023/10/06 06:03:46;;;;;;;15.10;7.20;;;;;;;13.78;100.00;101406.31;5040791;28;20060;-86
2023/10/06 06:06:21;;;;;;;12.23;6.35;;;;;;;13.77;100.00;101402.66;5079311;28;20020;-87
2023/10/06 06:08:47;;;;;;;13.18;6.88;;;;;;;13.85;100.00;101414.56;5081708;28;20040;-87
2023/10/06 06:11:15;;;;;;;11.45;6.00;;;;;;;13.84;100.00;101401.47;5092051;28;20005;-87
2023/10/06 06:13:42;;;;;;;13.65;6.82;;;;;;;14.04;100.00;101418.09;5096772;28;20108;-86
2023/10/06 06:16:07;;;;;;;12.65;6.78;;;;;;;14.17;100.00;101425.19;5097086;28;20035;-87
2023/10/06 06:18:34;;;;;;;7.82;5.15;;;;;;;14.07;100.00;101397.81;5097325;28;20020;-88
2023/10/06 06:21:07;;;;;;;10.48;6.25;;;;;;;14.44;100.00;101438.53;5096667;28;20103;-87
2023/10/06 06:23:46;;;;;;;9.02;5.60;;;;;;;14.61;100.00;101436.84;5096701;28;20012;-87
2023/10/06 06:26:25;;;;;;;11.15;5.82;;;;;;;14.65;100.00;101428.81;5054385;28;20044;-88
2023/10/06 06:28:52;;;;;;;13.68;5.90;;;;;;;14.79;100.00;101441.59;5073297;28;20032;-86
2023/10/06 06:31:18;;;;;;;14.38;6.07;;;;;;;14.81;100.00;101434.09;5072946;28;20043;-85
2023/10/06 06:33:59;;;;;;;13.00;6.18;;;;;;;14.82;100.00;101429.88;5072976;28;20469;-86
2023/10/06 06:36:26;;;;;;;12.23;6.18;;;;;;;14.87;100.00;101427.63;5074085;28;20032;-88
2023/10/06 06:38:53;;;;;;;10.98;5.50;;;;;;;14.96;100.00;101427.53;5075094;28;20060;-87
2023/10/06 06:41:21;;;;;;;9.93;5.65;;;;;;;15.00;100.00;101417.41;5056497;28;20048;-86
2023/10/06 06:43:48;;;;;;;13.90;6.38;;;;;;;15.17;100.00;101420.56;5074694;28;20073;-88
2023/10/06 06:46:16;;;;;;;8.93;5.53;;;;;;;15.47;100.00;101421.31;5073176;28;20104;-88
2023/10/06 06:48:44;;;;;;;17.92;5.75;;;;;;;16.44;100.00;101420.84;5072672;28;20028;-88
2023/10/06 06:51:11;;;;;;;13.20;5.75;;;;;;;17.66;100.00;101401.78;5074302;28;20496;-89
2023/10/06 06:53:39;;;;;;;8.35;4.88;;;;;;;18.99;100.00;101406.47;5073683;28;20031;-88
2023/10/06 06:56:06;;;;;;;11.05;4.28;;;;;;;19.61;100.00;101419.66;5072687;28;20043;-86
2023/10/06 06:58:34;;;;;;;8.35;4.40;;;;;;;20.00;100.00;101398.50;5076399;28;20028;-88
2023/10/06 07:00:59;;;;;;;8.07;3.90;;;;;;;20.50;100.00;101404.84;5076266;28;20033;-89
2023/10/06 07:03:28;;;;;;;10.18;4.28;;;;;;;20.93;100.00;101405.16;5077583;28;20027;-89
2023/10/06 07:05:56;;;;;;;8.82;3.97;;;;;;;21.48;100.00;101400.25;5077826;28;20036;-87
2023/10/06 07:08:23;;;;;;;6.57;3.92;;;;;;;22.16;100.00;101390.22;5060739;28;20017;-89
2023/10/06 07:10:54;;;;;;;9.20;3.70;;;;;;;22.77;100.00;101398.13;5062122;28;20481;-90
2023/10/06 07:13:24;;;;;;;14.10;4.45;;;;;;;23.45;100.00;101398.66;5059707;28;20023;-91
2023/10/06 07:15:50;;;;;;;10.20;3.85;;;;;;;23.94;100.00;101393.22;5078513;28;20473;-91
2023/10/06 07:18:19;;;;;;;9.68;4.15;;;;;;;24.44;100.00;101395.13;5076954;28;20034;-88
2023/10/06 07:20:45;;;;;;;9.48;4.13;;;;;;;24.64;100.00;101385.59;5074763;28;20089;-90
2023/10/06 07:23:11;;;;;;;7.45;3.60;;;;;;;24.55;100.00;101389.00;5074594;28;20401;-89
2023/10/06 07:25:37;;;;;;;8.82;3.80;;;;;;;24.00;100.00;101384.34;5075688;28;20473;-90
2023/10/06 07:28:06;;;;;;;9.05;4.03;;;;;;;23.25;100.00;101381.75;5075595;28;20071;-89
2023/10/06 07:30:34;;;;;;;17.17;8.20;;;;;;;22.69;100.00;101390.56;5075417;28;20032;-90
2023/10/06 07:33:03;;;;;;;11.77;4.30;;;;;;;22.19;100.00;101388.34;5076739;28;20024;-89
2023/10/06 07:35:31;;;;;;;10.90;3.95;;;;;;;21.78;100.00;101388.56;5076960;28;20028;-88
2023/10/06 07:37:57;;;;;;;9.75;3.78;;;;;;;21.42;100.00;101382.03;5059145;28;20032;-90
2023/10/06 07:40:27;;;;;;;11.30;3.67;;;;;;;21.23;100.00;101394.34;5041766;28;20120;-89
2023/10/06 07:42:57;;;;;;;16.05;4.63;;;;;;;21.13;100.00;101398.94;5075803;28;20028;-88
2023/10/06 07:45:23;;;;;;;6.15;3.78;;;;;;;21.06;100.00;101390.78;5059061;28;20100;-89
2023/10/06 07:47:50;;;;;;;12.90;4.43;;;;;;;21.07;100.00;101392.38;5076852;28;20511;-89
2023/10/06 07:50:16;;;;;;;8.55;4.97;;;;;;;21.01;100.00;101391.63;5075410;28;20044;-89
2023/10/06 07:53:04;;;;;;;14.30;5.18;;;;;;;20.78;100.00;101367.75;5075862;28;20075;-89
2023/10/06 07:55:31;;;;;;;14.45;5.72;;;;;;;20.67;100.00;101369.91;5076024;28;20036;-89
2023/10/06 07:58:00;;;;;;;14.75;5.22;;;;;;;20.49;100.00;101359.75;5100218;28;20050;-90
2023/10/06 08:00:28;;;;;;;12.63;4.47;;;;;;;20.52;100.00;101372.38;5085032;28;20020;-88
2023/10/06 08:02:56;;;;;;;8.50;4.45;;;;;;;20.51;100.00;101367.91;5097489;28;20028;-89
2023/10/06 08:05:22;;;;;;;10.13;5.60;;;;;;;20.67;100.00;101372.81;5047270;28;20042;-89
2023/10/06 08:07:48;;;;;;;10.50;4.80;;;;;;;20.92;100.00;101338.84;5078411;28;20060;-88
2023/10/06 08:10:15;;;;;;;7.82;4.55;;;;;;;21.43;100.00;101342.88;5097226;28;20032;-86
2023/10/06 08:12:43;;;;;;;13.32;4.95;;;;;;;21.94;100.00;101350.50;5096789;28;20032;-88
2023/10/06 08:15:09;;;;;;;12.90;5.07;;;;;;;22.19;100.00;101353.41;5078837;28;20505;-89
2023/10/06 08:17:39;;;;;;;10.77;4.40;;;;;;;22.29;100.00;101354.59;5078313;28;20060;-88
2023/10/06 08:20:12;;;;;;;8.85;4.35;;;;;;;22.15;100.00;101347.88;5096692;28;20039;-88
2023/10/06 08:22:39;;;;;;;7.15;4.28;;;;;;;22.23;100.00;101345.13;5069202;28;20032;-89
2023/10/06 08:25:09;;;;;;;9.68;4.35;;;;;;;22.35;100.00;101347.38;5090741;28;20058;-92
2023/10/06 08:27:35;;;;;;;11.32;5.28;;;;;;;22.60;100.00;101359.72;5092162;28;20032;-90
2023/10/06 08:30:09;;;;;;;11.93;4.80;;;;;;;22.66;100.00;101351.69;5100458;28;20035;-89
2023/10/06 08:32:35;;;;;;;7.30;4.13;;;;;;;22.89;100.00;101355.84;5103082;28;20046;-89
2023/10/06 08:35:02;;;;;;;5.38;4.28;;;;;;;23.21;100.00;101357.97;5088348;28;20024;-89
2023/10/06 08:37:29;;;;;;;12.32;4.07;;;;;;;23.57;100.00;101361.28;5065182;28;20096;-90
2023/10/06 08:39:57;;;;;;;6.53;3.80;;;;;;;23.67;100.00;101362.44;5102259;28;20103;-90
2023/10/06 08:42:24;;;;;;;6.63;4.28;;;;;;;23.74;100.00;101361.78;5062854;28;20019;-89
2023/10/06 08:44:52;;;;;;;8.48;4.57;;;;;;;23.56;100.00;101354.66;5046085;28;20028;-89
2023/10/06 08:47:27;;;;;;;8.32;4.78;;;;;;;23.45;100.00;101371.59;5062525;28;20020;-89
2023/10/06 08:50:04;;;;;;;8.68;4.28;;;;;;;23.27;100.00;101361.56;5079228;28;20070;-90
2023/10/06 08:52:33;;;;;;;9.80;3.78;;;;;;;23.07;100.00;101357.13;5078946;28;20358;-91
2023/10/06 08:54:59;;;;;;;11.70;4.40;;;;;;;23.01;100.00;101361.50;5095913;28;20072;-90
2023/10/06 08:57:28;;;;;;;9.50;4.38;;;;;;;22.88;100.00;101362.22;5077907;28;20109;-87
2023/10/06 08:59:56;;;;;;;9.30;5.30;;;;;;;22.80;100.00;101349.59;5095609;28;20031;-90
2023/10/06 09:02:25;;;;;;;7.15;4.10;;;;;;;22.73;100.00;101336.44;5079105;28;20430;-92
2023/10/06 09:04:54;;;;;;;6.95;3.58;;;;;;;22.64;100.00;101330.25;5078609;28;20034;-90
2023/10/06 09:07:22;;;;;;;13.88;4.05;;;;;;;22.81;100.00;101351.97;5078016;28;20400;-89
2023/10/06 09:09:49;;;;;;;11.35;4.45;;;;;;;22.56;100.00;101329.31;5096753;28;20403;-89
2023/10/06 09:12:26;;;;;;;9.48;3.80;;;;;;;22.65;100.00;101332.63;5095845;28;20491;-87
2023/10/06 09:14:54;;;;;;;6.43;3.95;;;;;;;23.00;100.00;101346.13;5095367;28;20024;-90
2023/10/06 09:17:38;;;;;;;10.32;3.97;;;;;;;23.21;100.00;101340.47;5061179;28;20106;-87
2023/10/06 09:20:04;;;;;;;7.63;3.60;;;;;;;23.14;100.00;101321.47;5096044;28;20028;-88
2023/10/06 09:22:43;;;;;;;8.80;4.07;;;;;;;23.25;100.00;101338.78;5095577;28;20528;-89
2023/10/06 09:25:10;;;;;;;10.50;3.97;;;;;;;23.01;100.00;101341.09;5077162;28;20020;-90
2023/10/06 09:27:37;;;;;;;9.23;3.67;;;;;;;22.84;100.00;101342.09;5077074;28;20043;-90
2023/10/06 09:30:11;;;;;;;7.10;4.20;;;;;;;22.68;100.00;101342.38;5077338;28;20023;-89
2023/10/06 09:32:40;;;;;;;4.45;3.30;;;;;;;22.60;100.00;101332.69;5060728;28;20388;-89
2023/10/06 09:35:22;;;;;;;4.72;2.95;;;;;;;22.49;100.00;101327.81;5060333;28;20120;-88
2023/10/06 09:37:51;;;;;;;7.00;3.35;;;;;;;22.29;100.00;101320.44;5076995;28;20028;-89
2023/10/06 09:40:21;;;;;;;11.05;3.08;;;;;;;22.07;100.00;101315.69;5094691;28;20028;-89
2023/10/06 09:42:48;;;;;;;5.72;2.83;;;;;;;22.00;100.00;101318.41;5077412;28;20035;-88
2023/10/06 09:45:34;;;;;;;7.13;3.00;;;;;;;21.96;100.00;101323.78;5045129;28;20060;-91
2023/10/06 09:48:05;;;;;;;8.73;2.78;;;;;;;21.80;100.00;101311.00;5079474;28;20036;-88
2023/10/06 09:50:32;;;;;;;10.80;3.08;;;;;;;21.73;100.00;101305.78;5076840;28;20040;-91
2023/10/06 09:53:10;;;;;;;4.25;2.90;;;;;;;21.63;100.00;101292.97;5094748;28;20047;-90
2023/10/06 09:55:37;;;;;;;6.68;2.95;;;;;;;21.35;100.00;101275.78;5078408;28;20381;-91
2023/10/06 09:58:05;;;;;;;4.03;2.95;;;;;;;21.11;100.00;101288.22;5101112;28;20024;-90
2023/10/06 10:00:35;;;;;;;6.45;3.13;;;;;;;21.01;100.00;101297.81;5101912;28;20024;-90
2023/10/06 10:03:02;;;;;;;8.50;4.25;;;;;;;21.02;100.00;101287.78;5095452;28;20080;-89
2023/10/06 10:05:29;;;;;;;5.55;2.90;;;;;;;21.00;100.00;101285.41;5077306;28;20032;-91
2023/10/06 10:07:56;;;;;;;11.43;3.42;;;;;;;21.13;100.00;101287.69;5095319;28;20035;-87
2023/10/06 10:10:24;;;;;;;6.07;2.40;;;;;;;21.30;100.00;101278.75;5060177;28;20085;-89
2023/10/06 10:13:19;;;;;;;6.55;2.85;;;;;;;21.46;100.00;101277.81;5075856;28;20031;-88
2023/10/06 10:15:58;;;;;;;6.07;2.15;;;;;;;21.61;100.00;101275.25;5093976;28;20051;-91
2023/10/06 10:18:38;;;;;;;6.45;2.72;;;;;;;21.65;100.00;101258.28;5094527;28;20024;-87
2023/10/06 10:21:08;;;;;;;4.85;2.28;;;;;;;21.71;100.00;101240.75;5094042;28;20387;-91
2023/10/06 10:23:37;;;;;;;5.57;2.08;;;;;;;21.86;100.00;101261.47;5060508;28;20124;-90
2023/10/06 10:26:19;;;;;;;5.53;2.30;;;;;;;22.01;100.00;101262.56;5059625;28;20032;-88
2023/10/06 10:29:17;;;;;;;4.45;2.00;;;;;;;22.20;100.00;101262.59;5081175;28;20066;-87
2023/10/06 10:32:12;;;;;;;5.07;2.60;;;;;;;22.28;100.00;101265.63;5100839;28;20085;-88
2023/10/06 10:35:13;;;;;;;3.13;1.63;;;;;;;22.33;100.00;101256.81;5102973;28;20023;-90
2023/10/06 10:38:01;;;;;;;4.32;2.25;;;;;;;22.32;100.00;101255.25;5122367;28;20102;-87
2023/10/06 10:40:48;;;;;;;3.88;2.33;;;;;;;22.22;100.00;101250.41;5121502;28;20102;-88
2023/10/06 10:43:16;;;;;;;4.75;2.15;;;;;;;22.24;100.00;101253.53;5121631;28;20041;-88
2023/10/06 10:45:44;;;;;;;9.20;1.98;;;;;;;22.22;100.00;101257.00;5087097;28;20035;-88
2023/10/06 10:48:31;;;;;;;4.25;1.92;;;;;;;22.21;100.00;101266.28;5089629;28;20028;-92
2023/10/06 10:51:01;;;;;;;3.05;1.90;;;;;;;22.14;100.00;101261.84;5080834;28;20500;-91
2023/10/06 10:53:54;;;;;;;3.78;1.77;;;;;;;22.06;100.00;101263.81;5080361;28;20032;-89
2023/10/06 10:56:25;;;;;;;4.90;2.25;;;;;;;22.04;100.00;101267.28;5064012;28;20401;-89
2023/10/06 10:58:53;;;;;;;4.97;2.70;;;;;;;22.01;100.00;101250.13;5080585;28;20040;-90
2023/10/06 11:01:29;;;;;;;5.13;2.30;;;;;;;21.92;100.00;101260.06;5079922;28;20035;-88
2023/10/06 11:04:18;;;;;;;3.40;2.40;;;;;;;21.77;100.00;101253.13;5079869;28;20040;-87
2023/10/06 11:07:04;;;;;;;5.88;3.05;;;;;;;21.55;100.00;101245.44;5079514;28;20051;-87
2023/10/06 11:09:30;;;;;;;6.45;2.63;;;;;;;21.30;100.00;101227.22;5079869;28;20076;-88
2023/10/06 11:12:00;;;;;;;4.97;2.75;;;;;;;21.32;100.00;101238.31;5112463;28;20115;-89
2023/10/06 11:14:28;;;;;;;3.53;2.20;;;;;;;21.17;100.00;101232.91;5085636;28;20020;-84
2023/10/06 11:17:11;;;;;;;5.90;2.35;;;;;;;21.21;100.00;101233.41;5081743;28;20058;-88
2023/10/06 11:19:39;;;;;;;6.60;2.50;;;;;;;21.27;100.00;101227.53;5081590;28;20118;-88
2023/10/06 11:22:19;;;;;;;7.43;2.80;;;;;;;21.43;100.00;101229.47;5098094;28;20425;-89
2023/10/06 11:24:47;;;;;;;5.05;2.58;;;;;;;21.49;100.00;101212.72;5097448;28;20035;-88
2023/10/06 11:27:21;;;;;;;4.10;2.80;;;;;;;21.67;100.00;101206.16;5062776;28;20040;-88
2023/10/06 11:29:57;;;;;;;5.18;2.83;;;;;;;21.80;100.00;101199.63;5079566;28;20052;-88
2023/10/06 11:32:23;;;;;;;2.90;2.00;;;;;;;21.91;100.00;101196.56;5064134;28;20019;-89
2023/10/06 11:34:51;;;;;;;2.75;2.15;;;;;;;21.72;100.00;101164.56;5085347;28;20032;-89
2023/10/06 11:37:19;;;;;;;8.05;3.03;;;;;;;21.84;100.00;101176.81;5088477;28;20054;-87
2023/10/06 11:39:55;;;;;;;5.70;2.50;;;;;;;21.69;100.00;101174.38;5073872;28;20047;-89